sensor_id;sensor_type;location;lat;lon;timestamp;pressure;altitude;pressure_sealevel;temperature;humidity
59787;BME280;45672;51.612;5.536;2023-01-29T00:00:37;102875.38;;;-0.82;96.12
59787;BME280;45672;51.612;5.536;2023-01-29T00:03:02;102880.47;;;-0.76;96.63
59787;BME280;45672;51.612;5.536;2023-01-29T00:05:28;102878.72;;;-0.74;96.04
59787;BME280;45672;51.612;5.536;2023-01-29T00:07:55;102861.22;;;-0.72;95.93
59787;BME280;45672;51.612;5.536;2023-01-29T00:10:20;102862.13;;;-0.71;96.15
59787;BME280;45672;51.612;5.536;2023-01-29T00:12:46;102867.34;;;-0.73;95.79
59787;BME280;45672;51.612;5.536;2023-01-29T00:15:11;102862.19;;;-0.76;96.38
59787;BME280;45672;51.612;5.536;2023-01-29T00:17:36;102869.16;;;-0.75;96.33
59787;BME280;45672;51.612;5.536;2023-01-29T00:20:02;102864.72;;;-0.73;96.45
59787;BME280;45672;51.612;5.536;2023-01-29T00:22:29;102859.47;;;-0.70;96.03
59787;BME280;45672;51.612;5.536;2023-01-29T00:24:54;102855.88;;;-0.64;96.34
59787;BME280;45672;51.612;5.536;2023-01-29T00:27:19;102851.41;;;-0.60;95.89
59787;BME280;45672;51.612;5.536;2023-01-29T00:29:45;102844.38;;;-0.57;95.50
59787;BME280;45672;51.612;5.536;2023-01-29T00:32:31;102852.19;;;-0.55;95.82
59787;BME280;45672;51.612;5.536;2023-01-29T00:34:56;102852.16;;;-0.54;96.08
59787;BME280;45672;51.612;5.536;2023-01-29T00:37:21;102852.06;;;-0.50;95.49
59787;BME280;45672;51.612;5.536;2023-01-29T00:39:47;102847.66;;;-0.48;95.17
59787;BME280;45672;51.612;5.536;2023-01-29T00:42:12;102847.66;;;-0.48;95.59
59787;BME280;45672;51.612;5.536;2023-01-29T00:44:56;102838.09;;;-0.48;94.89
59787;BME280;45672;51.612;5.536;2023-01-29T00:47:21;102828.47;;;-0.47;95.24
59787;BME280;45672;51.612;5.536;2023-01-29T00:49:58;102813.78;;;-0.53;95.38
59787;BME280;45672;51.612;5.536;2023-01-29T00:52:23;102821.66;;;-0.55;95.03
59787;BME280;45672;51.612;5.536;2023-01-29T00:54:52;102813.00;;;-0.57;95.48
59787;BME280;45672;51.612;5.536;2023-01-29T00:57:18;102813.03;;;-0.58;95.31
59787;BME280;45672;51.612;5.536;2023-01-29T00:59:43;102809.66;;;-0.63;95.10
59787;BME280;45672;51.612;5.536;2023-01-29T01:02:09;102808.00;;;-0.67;95.29
59787;BME280;45672;51.612;5.536;2023-01-29T01:04:53;102803.00;;;-0.78;95.90
59787;BME280;45672;51.612;5.536;2023-01-29T01:07:19;102806.66;;;-0.87;95.65
59787;BME280;45672;51.612;5.536;2023-01-29T01:09:44;102820.72;;;-0.93;96.10
59787;BME280;45672;51.612;5.536;2023-01-29T01:12:28;102814.75;;;-0.98;96.17
59787;BME280;45672;51.612;5.536;2023-01-29T01:14:53;102820.91;;;-1.02;96.27
59787;BME280;45672;51.612;5.536;2023-01-29T01:17:19;102813.19;;;-1.08;96.27
59787;BME280;45672;51.612;5.536;2023-01-29T01:19:44;102813.22;;;-1.10;96.57
59787;BME280;45672;51.612;5.536;2023-01-29T01:22:09;102805.41;;;-1.11;97.36
59787;BME280;45672;51.612;5.536;2023-01-29T01:24:36;102812.38;;;-1.10;96.93
59787;BME280;45672;51.612;5.536;2023-01-29T01:27:01;102807.16;;;-1.10;97.09
59787;BME280;45672;51.612;5.536;2023-01-29T01:29:26;102810.56;;;-1.08;97.05
59787;BME280;45672;51.612;5.536;2023-01-29T01:31:52;102815.75;;;-1.05;97.03
59787;BME280;45672;51.612;5.536;2023-01-29T01:34:18;102810.53;;;-1.05;97.02
59787;BME280;45672;51.612;5.536;2023-01-29T01:36:44;102808.81;;;-1.06;96.92
59787;BME280;45672;51.612;5.536;2023-01-29T01:39:09;102814.03;;;-1.06;97.34
59787;BME280;45672;51.612;5.536;2023-01-29T01:41:34;102820.91;;;-1.02;97.62
59787;BME280;45672;51.612;5.536;2023-01-29T01:44:01;102811.34;;;-1.03;97.81
59787;BME280;45672;51.612;5.536;2023-01-29T01:46:29;102806.09;;;-1.01;97.33
59787;BME280;45672;51.612;5.536;2023-01-29T01:49:02;102808.66;;;-1.00;97.56
59787;BME280;45672;51.612;5.536;2023-01-29T01:51:31;102808.66;;;-1.00;97.16
59787;BME280;45672;51.612;5.536;2023-01-29T01:54:02;102812.16;;;-0.99;97.39
59787;BME280;45672;51.612;5.536;2023-01-29T01:56:33;102814.75;;;-0.98;97.44
59787;BME280;45672;51.612;5.536;2023-01-29T01:59:09;102813.78;;;-0.95;97.93
59787;BME280;45672;51.612;5.536;2023-01-29T02:01:36;102817.22;;;-0.92;97.61
59787;BME280;45672;51.612;5.536;2023-01-29T02:04:07;102822.38;;;-0.89;96.99
59787;BME280;45672;51.612;5.536;2023-01-29T02:06:52;102815.41;;;-0.88;97.13
59787;BME280;45672;51.612;5.536;2023-01-29T02:09:41;102824.09;;;-0.88;96.97
59787;BME280;45672;51.612;5.536;2023-01-29T02:12:11;102821.53;;;-0.89;97.13
59787;BME280;45672;51.612;5.536;2023-01-29T02:14:39;102821.50;;;-0.88;97.04
59787;BME280;45672;51.612;5.536;2023-01-29T02:17:06;102831.06;;;-0.87;97.21
59787;BME280;45672;51.612;5.536;2023-01-29T02:28:05;102831.56;;;-0.69;97.13
59787;BME280;45672;51.612;5.536;2023-01-29T02:30:40;102833.31;;;-0.70;97.24
59787;BME280;45672;51.612;5.536;2023-01-29T02:33:13;102829.81;;;-0.70;96.69
59787;BME280;45672;51.612;5.536;2023-01-29T02:35:58;102835.91;;;-0.68;96.82
59787;BME280;45672;51.612;5.536;2023-01-29T02:43:45;102823.50;;;-0.60;96.92
59787;BME280;45672;51.612;5.536;2023-01-29T02:46:25;102820.88;;;-0.58;96.57
59787;BME280;45672;51.612;5.536;2023-01-29T02:49:00;102813.03;;;-0.58;96.65
59787;BME280;45672;51.612;5.536;2023-01-29T02:51:38;102819.97;;;-0.57;96.64
59787;BME280;45672;51.612;5.536;2023-01-29T02:54:19;102820.81;;;-0.55;96.45
59787;BME280;45672;51.612;5.536;2023-01-29T02:56:57;102816.34;;;-0.52;96.82
59787;BME280;45672;51.612;5.536;2023-01-29T02:59:38;102813.75;;;-0.52;96.25
59787;BME280;45672;51.612;5.536;2023-01-29T03:02:09;102819.00;;;-0.53;96.40
59787;BME280;45672;51.612;5.536;2023-01-29T03:04:40;102812.94;;;-0.54;96.89
59787;BME280;45672;51.612;5.536;2023-01-29T03:07:15;102817.19;;;-0.49;96.95
59787;BME280;45672;51.612;5.536;2023-01-29T03:10:05;102813.69;;;-0.50;96.71
59787;BME280;45672;51.612;5.536;2023-01-29T03:12:36;102814.59;;;-0.49;96.57
59787;BME280;45672;51.612;5.536;2023-01-29T03:15:17;102806.78;;;-0.51;96.86
59787;BME280;45672;51.612;5.536;2023-01-29T03:17:53;102818.09;;;-0.50;96.38
59787;BME280;45672;51.612;5.536;2023-01-29T03:20:23;102812.84;;;-0.50;96.60
59787;BME280;45672;51.612;5.536;2023-01-29T03:22:57;102812.78;;;-0.47;96.79
59787;BME280;45672;51.612;5.536;2023-01-29T03:25:27;102816.28;;;-0.47;96.72
59787;BME280;45672;51.612;5.536;2023-01-29T03:28:14;102809.34;;;-0.49;96.60
59787;BME280;45672;51.612;5.536;2023-01-29T03:31:03;102807.53;;;-0.47;96.43
59787;BME280;45672;51.612;5.536;2023-01-29T03:33:50;102810.16;;;-0.47;96.38
59787;BME280;45672;51.612;5.536;2023-01-29T03:36:25;102808.44;;;-0.47;96.97
59787;BME280;45672;51.612;5.536;2023-01-29T03:39:06;102810.94;;;-0.42;97.03
59787;BME280;45672;51.612;5.536;2023-01-29T03:41:35;102809.13;;;-0.40;96.77
59787;BME280;45672;51.612;5.536;2023-01-29T03:47:11;102795.97;;;-0.37;96.70
59787;BME280;45672;51.612;5.536;2023-01-29T03:55:19;102792.34;;;-0.31;96.92
59787;BME280;45672;51.612;5.536;2023-01-29T03:57:57;102788.84;;;-0.30;96.77
59787;BME280;45672;51.612;5.536;2023-01-29T04:01:01;102788.72;;;-0.26;96.53
59787;BME280;45672;51.612;5.536;2023-01-29T04:03:36;102781.84;;;-0.28;97.06
59787;BME280;45672;51.612;5.536;2023-01-29T04:06:10;102769.69;;;-0.31;96.59
59787;BME280;45672;51.612;5.536;2023-01-29T04:08:49;102766.19;;;-0.31;96.69
59787;BME280;45672;51.612;5.536;2023-01-29T04:11:18;102771.44;;;-0.31;97.00
59787;BME280;45672;51.612;5.536;2023-01-29T04:13:45;102776.66;;;-0.31;97.15
59787;BME280;45672;51.612;5.536;2023-01-29T04:16:18;102771.38;;;-0.28;96.92
59787;BME280;45672;51.612;5.536;2023-01-29T04:18:46;102770.50;;;-0.29;96.85
59787;BME280;45672;51.612;5.536;2023-01-29T04:21:13;102769.63;;;-0.28;96.93
59787;BME280;45672;51.612;5.536;2023-01-29T04:23:38;102770.50;;;-0.29;96.83
59787;BME280;45672;51.612;5.536;2023-01-29T04:29:31;102767.81;;;-0.26;96.99
59787;BME280;45672;51.612;5.536;2023-01-29T04:32:13;102771.38;;;-0.28;97.61
59787;BME280;45672;51.612;5.536;2023-01-29T04:37:35;102755.69;;;-0.30;97.36
59787;BME280;45672;51.612;5.536;2023-01-29T04:48:59;102734.88;;;-0.35;98.01
59787;BME280;45672;51.612;5.536;2023-01-29T04:51:56;102724.38;;;-0.33;98.10
59787;BME280;45672;51.612;5.536;2023-01-29T04:54:36;102713.03;;;-0.32;98.50
59787;BME280;45672;51.612;5.536;2023-01-29T04:57:21;102722.56;;;-0.29;98.42
59787;BME280;45672;51.612;5.536;2023-01-29T05:00:02;102713.00;;;-0.30;98.65
59787;BME280;45672;51.612;5.536;2023-01-29T05:02:32;102713.84;;;-0.28;98.74
59787;BME280;45672;51.612;5.536;2023-01-29T05:05:00;102709.41;;;-0.26;98.65
59787;BME280;45672;51.612;5.536;2023-01-29T05:07:29;102705.84;;;-0.24;98.42
59787;BME280;45672;51.612;5.536;2023-01-29T05:09:55;102714.56;;;-0.23;98.34
59787;BME280;45672;51.612;5.536;2023-01-29T05:12:21;102720.59;;;-0.20;98.62
59787;BME280;45672;51.612;5.536;2023-01-29T05:14:50;102712.75;;;-0.20;98.43
59787;BME280;45672;51.612;5.536;2023-01-29T05:17:18;102710.94;;;-0.18;98.51
59787;BME280;45672;51.612;5.536;2023-01-29T05:19:45;102701.28;;;-0.15;98.46
59787;BME280;45672;51.612;5.536;2023-01-29T05:22:12;102705.66;;;-0.16;98.74
59787;BME280;45672;51.612;5.536;2023-01-29T05:24:39;102692.56;;;-0.16;98.96
59787;BME280;45672;51.612;5.536;2023-01-29T05:27:05;102689.84;;;-0.11;98.91
59787;BME280;45672;51.612;5.536;2023-01-29T05:29:49;102695.09;;;-0.11;98.94
59787;BME280;45672;51.612;5.536;2023-01-29T05:32:14;102695.00;;;-0.08;98.89
59787;BME280;45672;51.612;5.536;2023-01-29T05:34:40;102690.56;;;-0.06;99.00
59787;BME280;45672;51.612;5.536;2023-01-29T05:37:05;102694.91;;;-0.05;98.73
59787;BME280;45672;51.612;5.536;2023-01-29T05:39:31;102691.38;;;-0.03;98.71
59787;BME280;45672;51.612;5.536;2023-01-29T05:41:57;102691.31;;;-0.01;98.91
59787;BME280;45672;51.612;5.536;2023-01-29T05:44:22;102696.50;;;0.01;99.08
59787;BME280;45672;51.612;5.536;2023-01-29T05:46:49;102692.13;;;0.01;98.63
59787;BME280;45672;51.612;5.536;2023-01-29T05:49:16;102693.06;;;0.00;98.58
59787;BME280;45672;51.612;5.536;2023-01-29T05:51:42;102702.56;;;0.03;98.70
59787;BME280;45672;51.612;5.536;2023-01-29T05:54:09;102701.66;;;0.04;98.80
59787;BME280;45672;51.612;5.536;2023-01-29T05:56:34;102705.97;;;0.06;98.89
59787;BME280;45672;51.612;5.536;2023-01-29T05:59:00;102713.78;;;0.08;98.87
59787;BME280;45672;51.612;5.536;2023-01-29T06:01:25;102711.09;;;0.09;98.92
59787;BME280;45672;51.612;5.536;2023-01-29T06:03:50;102712.84;;;0.10;99.02
59787;BME280;45672;51.612;5.536;2023-01-29T06:06:16;102717.16;;;0.11;99.30
59787;BME280;45672;51.612;5.536;2023-01-29T06:08:41;102717.94;;;0.15;99.00
59787;BME280;45672;51.612;5.536;2023-01-29T06:11:09;102715.22;;;0.18;98.92
59787;BME280;45672;51.612;5.536;2023-01-29T06:13:35;102723.88;;;0.22;99.34
59787;BME280;45672;51.612;5.536;2023-01-29T06:16:04;102727.31;;;0.24;99.05
59787;BME280;45672;51.612;5.536;2023-01-29T06:18:30;102737.69;;;0.27;98.87
59787;BME280;45672;51.612;5.536;2023-01-29T06:20:59;102742.06;;;0.26;98.52
59787;BME280;45672;51.612;5.536;2023-01-29T06:23:24;102742.91;;;0.27;98.87
59787;BME280;45672;51.612;5.536;2023-01-29T06:25:50;102733.31;;;0.27;98.77
59787;BME280;45672;51.612;5.536;2023-01-29T06:28:15;102719.41;;;0.25;98.82
59787;BME280;45672;51.612;5.536;2023-01-29T06:30:40;102702.84;;;0.25;98.70
59787;BME280;45672;51.612;5.536;2023-01-29T06:33:05;102691.53;;;0.24;98.64
59787;BME280;45672;51.612;5.536;2023-01-29T06:35:31;102683.72;;;0.21;99.06
59787;BME280;45672;51.612;5.536;2023-01-29T06:37:56;102682.88;;;0.21;98.95
59787;BME280;45672;51.612;5.536;2023-01-29T06:40:21;102682.03;;;0.20;99.00
59787;BME280;45672;51.612;5.536;2023-01-29T06:42:47;102701.22;;;0.21;98.98
59787;BME280;45672;51.612;5.536;2023-01-29T06:45:12;102695.97;;;0.21;98.95
59787;BME280;45672;51.612;5.536;2023-01-29T06:47:38;102691.53;;;0.24;99.07
59787;BME280;45672;51.612;5.536;2023-01-29T06:50:04;102687.22;;;0.22;99.21
59787;BME280;45672;51.612;5.536;2023-01-29T06:52:30;102688.94;;;0.23;98.81
59787;BME280;45672;51.612;5.536;2023-01-29T06:54:55;102693.25;;;0.24;99.39
59787;BME280;45672;51.612;5.536;2023-01-29T06:57:21;102690.59;;;0.25;98.91
59787;BME280;45672;51.612;5.536;2023-01-29T06:59:46;102685.38;;;0.25;99.30
59787;BME280;45672;51.612;5.536;2023-01-29T07:02:13;102685.31;;;0.27;98.98
59787;BME280;45672;51.612;5.536;2023-01-29T07:04:39;102686.25;;;0.26;99.20
59787;BME280;45672;51.612;5.536;2023-01-29T07:07:06;102684.53;;;0.25;99.24
59787;BME280;45672;51.612;5.536;2023-01-29T07:09:38;102679.25;;;0.26;98.79
59787;BME280;45672;51.612;5.536;2023-01-29T07:12:04;102694.00;;;0.29;99.14
59787;BME280;45672;51.612;5.536;2023-01-29T07:14:29;102692.19;;;0.31;99.09
59787;BME280;45672;51.612;5.536;2023-01-29T07:16:54;102692.97;;;0.34;99.42
59787;BME280;45672;51.612;5.536;2023-01-29T07:19:19;102700.78;;;0.36;98.40
59787;BME280;45672;51.612;5.536;2023-01-29T07:21:46;102692.88;;;0.38;98.49
59787;BME280;45672;51.612;5.536;2023-01-29T07:24:11;102691.13;;;0.38;98.68
59787;BME280;45672;51.612;5.536;2023-01-29T07:26:37;102690.22;;;0.39;98.60
59787;BME280;45672;51.612;5.536;2023-01-29T07:29:03;102691.03;;;0.41;98.62
59787;BME280;45672;51.612;5.536;2023-01-29T07:31:29;102692.72;;;0.44;98.62
59787;BME280;45672;51.612;5.536;2023-01-29T07:33:54;102681.38;;;0.43;98.09
59787;BME280;45672;51.612;5.536;2023-01-29T07:36:20;102676.94;;;0.45;98.60
59787;BME280;45672;51.612;5.536;2023-01-29T07:38:48;102682.19;;;0.45;98.42
59787;BME280;45672;51.612;5.536;2023-01-29T07:41:13;102676.06;;;0.46;98.31
59787;BME280;45672;51.612;5.536;2023-01-29T07:43:39;102680.44;;;0.46;98.18
59787;BME280;45672;51.612;5.536;2023-01-29T07:46:04;102676.88;;;0.48;98.18
59787;BME280;45672;51.612;5.536;2023-01-29T07:48:29;102688.16;;;0.50;98.29
59787;BME280;45672;51.612;5.536;2023-01-29T07:50:55;102693.34;;;0.52;98.72
59787;BME280;45672;51.612;5.536;2023-01-29T07:53:21;102685.50;;;0.52;98.68
59787;BME280;45672;51.612;5.536;2023-01-29T07:55:46;102688.06;;;0.54;98.27
59787;BME280;45672;51.612;5.536;2023-01-29T07:58:12;102681.09;;;0.54;98.17
59787;BME280;45672;51.612;5.536;2023-01-29T08:00:37;102683.72;;;0.52;97.96
59787;BME280;45672;51.612;5.536;2023-01-29T08:03:04;102677.59;;;0.54;98.00
59787;BME280;45672;51.612;5.536;2023-01-29T08:05:31;102673.22;;;0.54;98.32
59787;BME280;45672;51.612;5.536;2023-01-29T08:07:56;102667.13;;;0.54;97.86
59787;BME280;45672;51.612;5.536;2023-01-29T08:10:22;102668.84;;;0.55;97.94
59787;BME280;45672;51.612;5.536;2023-01-29T08:12:53;102674.91;;;0.55;97.61
59787;BME280;45672;51.612;5.536;2023-01-29T08:15:18;102680.13;;;0.57;97.58
59787;BME280;45672;51.612;5.536;2023-01-29T08:17:43;102673.09;;;0.59;97.17
59787;BME280;45672;51.612;5.536;2023-01-29T08:20:09;102661.72;;;0.58;96.97
59787;BME280;45672;51.612;5.536;2023-01-29T08:22:34;102665.22;;;0.59;97.23
59787;BME280;45672;51.612;5.536;2023-01-29T08:25:00;102665.19;;;0.60;97.03
59787;BME280;45672;51.612;5.536;2023-01-29T08:27:25;102657.38;;;0.59;97.06
59787;BME280;45672;51.612;5.536;2023-01-29T08:29:50;102658.31;;;0.56;97.29
59787;BME280;45672;51.612;5.536;2023-01-29T08:32:16;102653.88;;;0.58;97.51
59787;BME280;45672;51.612;5.536;2023-01-29T08:34:41;102649.50;;;0.59;97.47
59787;BME280;45672;51.612;5.536;2023-01-29T08:37:09;102647.88;;;0.55;97.47
59787;BME280;45672;51.612;5.536;2023-01-29T08:39:34;102647.94;;;0.53;97.29
59787;BME280;45672;51.612;5.536;2023-01-29T08:41:59;102640.91;;;0.54;97.30
59787;BME280;45672;51.612;5.536;2023-01-29T08:44:25;102640.03;;;0.55;97.28
59787;BME280;45672;51.612;5.536;2023-01-29T08:46:50;102617.44;;;0.50;97.31
59787;BME280;45672;51.612;5.536;2023-01-29T08:49:15;102632.06;;;0.58;97.38
59787;BME280;45672;51.612;5.536;2023-01-29T08:51:40;102626.84;;;0.58;97.31
59787;BME280;45672;51.612;5.536;2023-01-29T08:54:06;102636.38;;;0.60;96.86
59787;BME280;45672;51.612;5.536;2023-01-29T08:56:31;102646.75;;;0.63;96.75
59787;BME280;45672;51.612;5.536;2023-01-29T08:58:56;102644.81;;;0.70;96.79
59787;BME280;45672;51.612;5.536;2023-01-29T09:01:21;102650.75;;;0.75;96.65
59787;BME280;45672;51.612;5.536;2023-01-29T09:03:47;102649.72;;;0.81;96.82
59787;BME280;45672;51.612;5.536;2023-01-29T09:06:14;102640.78;;;0.86;96.46
59787;BME280;45672;51.612;5.536;2023-01-29T09:08:39;102632.88;;;0.90;96.51
59787;BME280;45672;51.612;5.536;2023-01-29T09:11:05;102636.19;;;0.95;96.31
59787;BME280;45672;51.612;5.536;2023-01-29T09:13:31;102631.81;;;0.95;95.05
59787;BME280;45672;51.612;5.536;2023-01-29T09:16:00;102621.28;;;0.97;95.52
59787;BME280;45672;51.612;5.536;2023-01-29T09:18:26;102626.41;;;1.00;95.38
59787;BME280;45672;51.612;5.536;2023-01-29T09:20:52;102628.84;;;1.06;95.27
59787;BME280;45672;51.612;5.536;2023-01-29T09:23:18;102622.53;;;1.12;94.83
59787;BME280;45672;51.612;5.536;2023-01-29T09:25:44;102619.88;;;1.13;94.52
59787;BME280;45672;51.612;5.536;2023-01-29T09:28:09;102626.84;;;1.14;94.32
59787;BME280;45672;51.612;5.536;2023-01-29T09:30:34;102623.31;;;1.15;94.11
59787;BME280;45672;51.612;5.536;2023-01-29T09:33:04;102625.94;;;1.15;93.81
59787;BME280;45672;51.612;5.536;2023-01-29T09:35:30;102632.06;;;1.14;93.57
59787;BME280;45672;51.612;5.536;2023-01-29T09:37:55;102636.38;;;1.17;93.05
59787;BME280;45672;51.612;5.536;2023-01-29T09:42:57;102629.28;;;1.19;93.08
59787;BME280;45672;51.612;5.536;2023-01-29T09:45:26;102623.09;;;1.22;93.31
59787;BME280;45672;51.612;5.536;2023-01-29T09:47:55;102628.28;;;1.23;92.14
59787;BME280;45672;51.612;5.536;2023-01-29T09:50:27;102621.28;;;1.24;91.82
59787;BME280;45672;51.612;5.536;2023-01-29T09:53:11;102625.44;;;1.31;92.57
59787;BME280;45672;51.612;5.536;2023-01-29T09:55:51;102617.47;;;1.34;91.92
59787;BME280;45672;51.612;5.536;2023-01-29T09:58:34;102618.34;;;1.33;91.94
59787;BME280;45672;51.612;5.536;2023-01-29T10:06:48;102625.06;;;1.42;91.70
59787;BME280;45672;51.612;5.536;2023-01-29T10:15:17;102621.38;;;1.47;91.32
59787;BME280;45672;51.612;5.536;2023-01-29T10:17:53;102624.81;;;1.49;91.38
59787;BME280;45672;51.612;5.536;2023-01-29T10:23:26;102618.50;;;1.55;91.14
59787;BME280;45672;51.612;5.536;2023-01-29T10:25:54;102627.22;;;1.55;90.59
59787;BME280;45672;51.612;5.536;2023-01-29T10:28:26;102625.50;;;1.54;90.45
59787;BME280;45672;51.612;5.536;2023-01-29T10:31:06;102624.59;;;1.55;90.63
59787;BME280;45672;51.612;5.536;2023-01-29T10:33:38;102616.56;;;1.60;90.88
59787;BME280;45672;51.612;5.536;2023-01-29T10:36:08;102621.63;;;1.65;90.81
59787;BME280;45672;51.612;5.536;2023-01-29T10:38:45;102620.56;;;1.70;90.92
59787;BME280;45672;51.612;5.536;2023-01-29T10:55:01;102605.94;;;1.88;89.19
59787;BME280;45672;51.612;5.536;2023-01-29T11:00:25;102596.16;;;1.94;88.85
59787;BME280;45672;51.612;5.536;2023-01-29T11:02:52;102584.84;;;1.92;88.43
59787;BME280;45672;51.612;5.536;2023-01-29T11:05:36;102579.47;;;1.95;88.12
59787;BME280;45672;51.612;5.536;2023-01-29T11:08:17;102565.38;;;1.97;88.50
59787;BME280;45672;51.612;5.536;2023-01-29T11:10:59;102563.38;;;2.04;88.85
59787;BME280;45672;51.612;5.536;2023-01-29T11:13:30;102551.88;;;2.08;88.39
59787;BME280;45672;51.612;5.536;2023-01-29T11:15:56;102562.38;;;2.08;87.73
59787;BME280;45672;51.612;5.536;2023-01-29T11:18:22;102542.97;;;2.12;87.53
59787;BME280;45672;51.612;5.536;2023-01-29T11:20:59;102537.47;;;2.18;87.63
59787;BME280;45672;51.612;5.536;2023-01-29T11:23:47;102539.00;;;2.24;86.99
59787;BME280;45672;51.612;5.536;2023-01-29T11:26:17;102526.72;;;2.24;87.01
59787;BME280;45672;51.612;5.536;2023-01-29T11:28:47;102529.19;;;2.29;87.01
59787;BME280;45672;51.612;5.536;2023-01-29T11:31:25;102529.91;;;2.33;86.56
59787;BME280;45672;51.612;5.536;2023-01-29T11:34:20;102525.28;;;2.39;86.40
59787;BME280;45672;51.612;5.536;2023-01-29T11:39:24;102498.94;;;2.41;85.38
59787;BME280;45672;51.612;5.536;2023-01-29T11:42:01;102506.50;;;2.49;86.02
59787;BME280;45672;51.612;5.536;2023-01-29T11:44:31;102506.34;;;2.53;85.92
59787;BME280;45672;51.612;5.536;2023-01-29T11:49:46;102487.13;;;2.51;85.37
59787;BME280;45672;51.612;5.536;2023-01-29T11:52:14;102486.16;;;2.54;85.31
59787;BME280;45672;51.612;5.536;2023-01-29T11:57:40;102477.56;;;2.50;85.31
59787;BME280;45672;51.612;5.536;2023-01-29T12:00:20;102463.75;;;2.45;85.14
59787;BME280;45672;51.612;5.536;2023-01-29T12:02:54;102461.00;;;2.48;85.20
59787;BME280;45672;51.612;5.536;2023-01-29T12:05:23;102460.72;;;2.54;85.42
59787;BME280;45672;51.612;5.536;2023-01-29T12:07:51;102447.66;;;2.53;84.51
59787;BME280;45672;51.612;5.536;2023-01-29T12:13:04;102456.28;;;2.56;84.89
59787;BME280;45672;51.612;5.536;2023-01-29T12:15:30;102452.00;;;2.54;84.98
59787;BME280;45672;51.612;5.536;2023-01-29T12:18:29;102451.28;;;2.50;84.02
59787;BME280;45672;51.612;5.536;2023-01-29T12:21:03;102442.53;;;2.50;85.03
59787;BME280;45672;51.612;5.536;2023-01-29T12:23:56;102441.91;;;2.45;85.41
59787;BME280;45672;51.612;5.536;2023-01-29T12:26:30;102427.66;;;2.50;85.17
59787;BME280;45672;51.612;5.536;2023-01-29T12:29:12;102421.53;;;2.50;84.85
59787;BME280;45672;51.612;5.536;2023-01-29T12:32:02;102420.41;;;2.55;85.68
59787;BME280;45672;51.612;5.536;2023-01-29T12:34:45;102422.91;;;2.58;85.18
59787;BME280;45672;51.612;5.536;2023-01-29T12:37:22;102412.28;;;2.62;85.07
59787;BME280;45672;51.612;5.536;2023-01-29T12:39:50;102399.19;;;2.60;85.07
59787;BME280;45672;51.612;5.536;2023-01-29T12:42:23;102401.78;;;2.62;85.64
59787;BME280;45672;51.612;5.536;2023-01-29T12:44:54;102398.88;;;2.68;85.36
59787;BME280;45672;51.612;5.536;2023-01-29T12:47:29;102393.44;;;2.72;85.65
59787;BME280;45672;51.612;5.536;2023-01-29T12:49:57;102392.38;;;2.76;85.35
59787;BME280;45672;51.612;5.536;2023-01-29T12:52:36;102392.16;;;2.81;85.29
59787;BME280;45672;51.612;5.536;2023-01-29T12:55:27;102383.16;;;2.87;85.72
59787;BME280;45672;51.612;5.536;2023-01-29T12:57:58;102380.47;;;2.88;84.59
59787;BME280;45672;51.612;5.536;2023-01-29T13:00:35;102380.34;;;2.91;85.17
59787;BME280;45672;51.612;5.536;2023-01-29T13:03:09;102373.31;;;2.92;84.51
59787;BME280;45672;51.612;5.536;2023-01-29T13:08:20;102365.63;;;2.87;84.39
59787;BME280;45672;51.612;5.536;2023-01-29T13:10:51;102368.38;;;2.84;84.95
59787;BME280;45672;51.612;5.536;2023-01-29T13:13:26;102363.13;;;2.84;85.36
59787;BME280;45672;51.612;5.536;2023-01-29T13:15:55;102363.13;;;2.84;85.22
59787;BME280;45672;51.612;5.536;2023-01-29T13:18:46;102357.00;;;2.84;85.90
59787;BME280;45672;51.612;5.536;2023-01-29T13:21:20;102350.84;;;2.85;85.65
59787;BME280;45672;51.612;5.536;2023-01-29T13:23:49;102355.13;;;2.87;85.73
59787;BME280;45672;51.612;5.536;2023-01-29T13:26:17;102349.94;;;2.86;86.07
59787;BME280;45672;51.612;5.536;2023-01-29T13:28:43;102342.81;;;2.88;86.36
59787;BME280;45672;51.612;5.536;2023-01-29T13:33:41;102328.69;;;2.90;86.49
59787;BME280;45672;51.612;5.536;2023-01-29T13:36:23;102319.81;;;2.93;86.61
59787;BME280;45672;51.612;5.536;2023-01-29T13:41:44;102314.66;;;2.90;86.00
59787;BME280;45672;51.612;5.536;2023-01-29T13:44:34;102318.16;;;2.90;86.45
59787;BME280;45672;51.612;5.536;2023-01-29T13:47:07;102312.09;;;2.88;87.11
59787;BME280;45672;51.612;5.536;2023-01-29T13:49:45;102309.38;;;2.91;86.80
59787;BME280;45672;51.612;5.536;2023-01-29T13:55:02;102307.00;;;2.85;87.08
59787;BME280;45672;51.612;5.536;2023-01-29T13:59:58;102307.00;;;2.85;87.73
59787;BME280;45672;51.612;5.536;2023-01-29T14:02:28;102306.16;;;2.85;87.86
59787;BME280;45672;51.612;5.536;2023-01-29T14:10:34;102302.72;;;2.83;88.13
59787;BME280;45672;51.612;5.536;2023-01-29T14:15:31;102276.59;;;2.80;88.11
59787;BME280;45672;51.612;5.536;2023-01-29T14:20:36;102285.91;;;2.87;88.15
59787;BME280;45672;51.612;5.536;2023-01-29T14:23:03;102282.56;;;2.83;87.69
59787;BME280;45672;51.612;5.536;2023-01-29T14:25:32;102279.88;;;2.85;88.09
59787;BME280;45672;51.612;5.536;2023-01-29T14:28:00;102278.22;;;2.82;88.19
59787;BME280;45672;51.612;5.536;2023-01-29T14:30:33;102271.97;;;2.85;88.22
59787;BME280;45672;51.612;5.536;2023-01-29T14:32:59;102280.72;;;2.85;88.79
59787;BME280;45672;51.612;5.536;2023-01-29T14:35:29;102271.91;;;2.86;88.66
59787;BME280;45672;51.612;5.536;2023-01-29T14:37:59;102264.94;;;2.85;88.57
59787;BME280;45672;51.612;5.536;2023-01-29T14:40:28;102261.47;;;2.85;88.23
59787;BME280;45672;51.612;5.536;2023-01-29T14:43:01;102262.97;;;2.90;88.27
59787;BME280;45672;51.612;5.536;2023-01-29T14:45:33;102266.28;;;2.94;88.55
59787;BME280;45672;51.612;5.536;2023-01-29T14:48:45;102260.84;;;2.99;88.36
59787;BME280;45672;51.612;5.536;2023-01-29T14:50:47;102255.59;;;2.99;88.75
59787;BME280;45672;51.612;5.536;2023-01-29T14:58:47;102249.38;;;3.00;88.74
59787;BME280;45672;51.612;5.536;2023-01-29T15:01:21;102255.44;;;3.02;88.48
59787;BME280;45672;51.612;5.536;2023-01-29T15:03:52;102257.41;;;2.97;88.57